createdAt,value
2022-12-01T00:00:54.429Z,103495.44
2022-12-01T00:01:56.420Z,103494.38
2022-12-01T00:02:58.969Z,103498.03
2022-12-01T00:04:00.765Z,103486.81
2022-12-01T00:05:02.541Z,103492.66
2022-12-01T00:06:06.966Z,103485.94
2022-12-01T00:07:08.638Z,103498.03
2022-12-01T00:08:10.689Z,103493.63
2022-12-01T00:09:30.838Z,103482.28
2022-12-01T00:10:35.927Z,103495.34
2022-12-01T00:11:38.593Z,103494.38
2022-12-01T00:12:43.606Z,103499.94
2022-12-01T00:13:45.361Z,103500.81
2022-12-01T00:14:54.797Z,103500.03
2022-12-01T00:15:56.611Z,103500.81
2022-12-01T00:16:58.421Z,103499.09
2022-12-01T00:18:01.542Z,103496.59
2022-12-01T00:19:03.742Z,103501.00
2022-12-01T00:20:06.807Z,103508.28
2022-12-01T00:21:19.168Z,103503.69
2022-12-01T00:22:20.882Z,103507.22
2022-12-01T00:23:22.786Z,103505.47
2022-12-01T00:24:25.385Z,103509.13
2022-12-01T00:25:27.657Z,103501.16
2022-12-01T00:26:29.885Z,103509.13
2022-12-01T00:27:31.596Z,103509.22
2022-12-01T00:28:33.652Z,103503.03
2022-12-01T00:29:35.361Z,103494.56
2022-12-01T00:30:37.021Z,103512.81
2022-12-01T00:31:38.807Z,103503.19
2022-12-01T00:32:40.678Z,103496.47
2022-12-01T00:33:42.437Z,103513.78
2022-12-01T00:34:44.131Z,103508.41
2022-12-01T00:35:45.894Z,103507.53
2022-12-01T00:36:47.582Z,103508.41
2022-12-01T00:37:49.253Z,103502.16
2022-12-01T00:38:54.152Z,103504.91
2022-12-01T00:39:56.022Z,103509.34
2022-12-01T00:40:57.846Z,103503.03
2022-12-01T00:41:59.681Z,103503.03
2022-12-01T00:43:01.412Z,103491.09
2022-12-01T00:44:03.097Z,103504.91
2022-12-01T00:45:05.396Z,103501.28
2022-12-01T00:46:07.164Z,103500.44
2022-12-01T00:47:08.937Z,103498.72
2022-12-01T00:48:10.673Z,103501.38
2022-12-01T00:49:13.117Z,103502.34
2022-12-01T00:50:14.950Z,103502.25
2022-12-01T00:51:16.664Z,103504.06
2022-12-01T00:52:19.863Z,103504.16
2022-12-01T00:53:22.777Z,103499.56
2022-12-01T00:54:24.464Z,103466.13
2022-12-01T00:55:26.671Z,103488.69
2022-12-01T00:56:28.468Z,103507.72
2022-12-01T00:57:30.148Z,103491.28
2022-12-01T00:58:31.866Z,103496.28
2022-12-01T00:59:33.886Z,103508.66
2022-12-01T01:00:38.806Z,103499.84
2022-12-01T01:01:40.871Z,103504.16
2022-12-01T01:02:42.791Z,103502.41
2022-12-01T01:03:44.560Z,103509.63
2022-12-01T01:04:46.281Z,103498.00
2022-12-01T01:05:48.000Z,103499.84
2022-12-01T01:06:49.759Z,103492.03
2022-12-01T01:07:51.499Z,103507.00
2022-12-01T01:08:53.226Z,103508.72
2022-12-01T01:09:54.981Z,103507.00
2022-12-01T01:11:01.276Z,103502.69
2022-12-01T01:12:03.176Z,103501.66
2022-12-01T01:13:05.052Z,103505.28
2022-12-01T01:14:07.535Z,103507.00
2022-12-01T01:15:09.636Z,103506.16
2022-12-01T01:16:17.313Z,103498.19
2022-12-01T01:17:19.927Z,103506.22
2022-12-01T01:18:21.588Z,103500.78
2022-12-01T01:19:24.166Z,103499.06
2022-12-01T01:20:25.825Z,103498.38
2022-12-01T01:21:27.880Z,103507.19
2022-12-01T01:22:29.546Z,103500.97
2022-12-01T01:23:31.622Z,103503.66
2022-12-01T01:24:33.281Z,103503.66
2022-12-01T01:25:35.193Z,103506.34
2022-12-01T01:26:37.916Z,103498.28
2022-12-01T01:27:39.608Z,103493.00
2022-12-01T01:28:41.810Z,103492.22
2022-12-01T01:29:43.512Z,103505.44
2022-12-01T01:30:45.642Z,103501.94
2022-12-01T01:31:47.371Z,103499.25
2022-12-01T01:32:49.115Z,103498.47
2022-12-01T01:33:51.231Z,103502.00
2022-12-01T01:34:52.899Z,103503.72
2022-12-01T01:36:00.102Z,103496.63
2022-12-01T01:37:01.786Z,103501.03
2022-12-01T01:38:03.587Z,103506.41
2022-12-01T01:39:05.321Z,103509.09
2022-12-01T01:40:07.638Z,103508.31
2022-12-01T01:41:10.392Z,103505.03
2022-12-01T01:42:15.239Z,103511.00
2022-12-01T01:43:37.729Z,103502.94
2022-12-01T01:44:49.197Z,103507.09
2022-12-01T01:45:50.971Z,103507.97
2022-12-01T01:46:52.774Z,103510.81
2022-12-01T01:47:57.432Z,103510.03
2022-12-01T01:49:08.170Z,103509.19
2022-12-01T01:50:14.345Z,103501.94
2022-12-01T01:51:19.657Z,103504.69
2022-12-01T01:52:22.948Z,103510.03
2022-12-01T01:53:24.865Z,103500.28
2022-12-01T01:54:34.370Z,103505.63
2022-12-01T01:55:36.377Z,103507.34
2022-12-01T01:56:38.177Z,103508.31
2022-12-01T01:57:40.941Z,103507.53
2022-12-01T01:58:43.238Z,103509.28
2022-12-01T01:59:50.096Z,103512.91
2022-12-01T02:00:52.095Z,103516.34
2022-12-01T02:02:08.980Z,103511.00
2022-12-01T02:03:14.880Z,103507.34
2022-12-01T02:04:16.704Z,103507.34
2022-12-01T02:05:22.766Z,103509.38
2022-12-01T02:06:24.856Z,103512.91
2022-12-01T02:07:26.712Z,103495.50
2022-12-01T02:08:29.014Z,103518.38
2022-12-01T02:09:30.846Z,103511.19
2022-12-01T02:10:49.641Z,103516.63
2022-12-01T02:12:11.545Z,103517.25
2022-12-01T02:13:38.981Z,103507.88
2022-12-01T02:15:06.684Z,103509.63
2022-12-01T02:16:14.604Z,103509.69
2022-12-01T02:17:41.498Z,103502.69
2022-12-01T02:19:16.272Z,103514.22
2022-12-01T02:20:23.873Z,103512.31
2022-12-01T02:21:53.538Z,103513.25
2022-12-01T02:23:32.096Z,103515.81
2022-12-01T02:25:02.974Z,103493.34
2022-12-01T02:26:10.875Z,103518.69
2022-12-01T02:27:33.837Z,103510.03
2022-12-01T02:29:12.867Z,103516.97
2022-12-01T02:30:18.265Z,103513.50
2022-12-01T02:31:26.933Z,103512.91
2022-12-01T02:32:57.644Z,103517.13
2022-12-01T02:34:25.108Z,103516.34
2022-12-01T02:35:45.241Z,103510.94
2022-12-01T02:37:04.423Z,103520.00
2022-12-01T02:38:20.305Z,103518.09
2022-12-01T02:39:25.208Z,103516.53
2022-12-01T02:40:50.996Z,103516.72
2022-12-01T02:42:00.499Z,103516.53
2022-12-01T02:43:13.220Z,103516.72
2022-12-01T02:44:20.938Z,103516.72
2022-12-01T02:45:59.305Z,103516.53
2022-12-01T02:47:11.705Z,103521.91
2022-12-01T02:48:20.797Z,103519.31
2022-12-01T02:49:35.555Z,103524.69
2022-12-01T02:50:40.002Z,103516.00
2022-12-01T02:51:44.811Z,103518.78
2022-12-01T02:52:46.814Z,103523.19
2022-12-01T02:53:49.269Z,103521.53
2022-12-01T02:54:53.295Z,103517.13
2022-12-01T02:55:57.834Z,103513.59
2022-12-01T02:56:59.702Z,103517.13
2022-12-01T02:58:01.485Z,103512.72
2022-12-01T02:59:10.065Z,103502.44
2022-12-01T03:00:13.892Z,103511.00
2022-12-01T03:01:32.852Z,103516.34
2022-12-01T03:02:43.763Z,103521.38
2022-12-01T03:04:09.021Z,103515.75
2022-12-01T03:05:25.066Z,103521.06
2022-12-01T03:06:41.511Z,103516.72
2022-12-01T03:07:55.438Z,103513.09
2022-12-01T03:09:23.196Z,103512.91
2022-12-01T03:10:35.442Z,103514.81
2022-12-01T03:11:54.506Z,103513.84
2022-12-01T03:13:20.998Z,103517.31
2022-12-01T03:14:53.254Z,103522.78
2022-12-01T03:16:18.147Z,103512.72
2022-12-01T03:17:28.876Z,103509.44
2022-12-01T03:18:42.276Z,103507.81
2022-12-01T03:19:54.946Z,103506.00
2022-12-01T03:21:05.485Z,103513.25
2022-12-01T03:22:31.926Z,103510.56
2022-12-01T03:23:39.363Z,103512.31
2022-12-01T03:24:45.216Z,103507.19
2022-12-01T03:25:51.983Z,103509.03
2022-12-01T03:26:58.533Z,103506.41
2022-12-01T03:29:43.659Z,103499.41
2022-12-01T03:30:46.934Z,103502.09
2022-12-01T03:31:53.301Z,103512.56
2022-12-01T03:33:02.903Z,103503.06
2022-12-01T03:34:11.680Z,103516.28
2022-12-01T03:35:23.670Z,103510.16
2022-12-01T03:36:29.757Z,103511.94
2022-12-01T03:37:40.861Z,103513.59
2022-12-01T03:38:46.709Z,103518.97
2022-12-01T03:39:53.753Z,103498.13
2022-12-01T03:41:06.231Z,103521.66
2022-12-01T03:42:31.873Z,103518.63
2022-12-01T03:43:38.787Z,103506.50
2022-12-01T03:44:57.603Z,103516.19
2022-12-01T03:46:22.194Z,103515.88
2022-12-01T03:47:32.238Z,103516.00
2022-12-01T03:48:34.481Z,103510.22
2022-12-01T03:49:37.793Z,103516.28
2022-12-01T03:51:04.367Z,103519.91
2022-12-01T03:52:05.978Z,103515.16
2022-12-01T03:53:23.917Z,103516.28
2022-12-01T03:55:00.009Z,103513.25
2022-12-01T03:56:06.027Z,103524.81
2022-12-01T03:57:12.013Z,103523.28
2022-12-01T03:58:30.757Z,103518.97
2022-12-01T03:59:36.049Z,103519.75
2022-12-01T04:00:38.558Z,103517.25
2022-12-01T04:01:40.621Z,103514.72
2022-12-01T04:02:44.849Z,103521.91
2022-12-01T04:03:47.673Z,103511.44
2022-12-01T04:04:49.438Z,103521.03
2022-12-01T04:05:51.629Z,103514.81
2022-12-01T04:06:53.678Z,103515.75
2022-12-01T04:07:55.507Z,103511.34
2022-12-01T04:08:57.235Z,103493.00
2022-12-01T04:09:58.937Z,103509.63
2022-12-01T04:11:00.631Z,103505.97
2022-12-01T04:12:20.898Z,103508.66
2022-12-01T04:13:23.373Z,103507.47
2022-12-01T04:14:25.372Z,103495.59
2022-12-01T04:15:28.150Z,103513.97
2022-12-01T04:16:29.977Z,103513.97
2022-12-01T04:17:32.204Z,103516.72
2022-12-01T04:18:33.961Z,103509.53
2022-12-01T04:19:35.610Z,103517.59
2022-12-01T04:20:37.264Z,103519.38
2022-12-01T04:21:38.959Z,103514.13
2022-12-01T04:22:40.872Z,103517.59
2022-12-01T04:24:00.689Z,103514.91
2022-12-01T04:25:04.057Z,103509.63
2022-12-01T04:26:07.312Z,103506.25
2022-12-01T04:27:10.698Z,103502.69
2022-12-01T04:28:12.454Z,103522.00
2022-12-01T04:29:14.598Z,103503.72
2022-12-01T04:30:16.521Z,103509.00
2022-12-01T04:31:18.274Z,103516.97
2022-12-01T04:32:20.133Z,103521.22
2022-12-01T04:33:22.106Z,103516.03
2022-12-01T04:34:23.823Z,103525.63
2022-12-01T04:35:25.592Z,103525.69
2022-12-01T04:36:30.813Z,103523.97
2022-12-01T04:37:33.628Z,103523.97
2022-12-01T04:38:37.181Z,103517.66
2022-12-01T04:39:42.069Z,103526.59
2022-12-01T04:40:43.736Z,103526.59
2022-12-01T04:41:45.429Z,103518.53
2022-12-01T04:42:47.152Z,103518.97
2022-12-01T04:43:48.828Z,103525.97
2022-12-01T04:44:50.508Z,103532.13
2022-12-01T04:45:52.256Z,103532.97
2022-12-01T04:46:54.188Z,103529.44
2022-12-01T04:47:56.042Z,103527.59
2022-12-01T04:48:57.797Z,103526.75
2022-12-01T04:50:00.555Z,103535.56
2022-12-01T04:51:03.906Z,103525.88
2022-12-01T04:52:05.648Z,103521.41
2022-12-01T04:53:07.435Z,103523.13
2022-12-01T04:54:09.306Z,103526.75
2022-12-01T04:55:11.013Z,103499.94
2022-12-01T04:56:12.743Z,103532.13
2022-12-01T04:57:14.475Z,103529.44
2022-12-01T04:58:16.161Z,103528.47
2022-12-01T04:59:18.134Z,103530.38
2022-12-01T05:00:19.825Z,103529.44
2022-12-01T05:01:21.695Z,103511.09
2022-12-01T05:02:23.451Z,103531.22
2022-12-01T05:03:25.162Z,103533.06
2022-12-01T05:04:26.860Z,103537.47
2022-12-01T05:05:28.688Z,103519.03
2022-12-01T05:06:30.984Z,103527.00
2022-12-01T05:07:32.955Z,103534.78
2022-12-01T05:08:34.676Z,103531.41
2022-12-01T05:09:36.476Z,103532.13
2022-12-01T05:10:38.530Z,103537.47
2022-12-01T05:11:40.249Z,103519.91
2022-12-01T05:12:42.049Z,103516.63
2022-12-01T05:13:45.816Z,103533.13
2022-12-01T05:14:47.544Z,103531.34
2022-12-01T05:15:49.319Z,103537.47
2022-12-01T05:16:51.115Z,103535.75
2022-12-01T05:17:52.927Z,103529.50
2022-12-01T05:19:16.199Z,103533.13
2022-12-01T05:20:41.785Z,103539.88
2022-12-01T05:21:45.430Z,103537.91
2022-12-01T05:23:04.890Z,103547.84
2022-12-01T05:24:08.348Z,103543.28
2022-12-01T05:25:10.028Z,103537.47
2022-12-01T05:26:11.964Z,103543.53
2022-12-01T05:27:13.697Z,103553.47
2022-12-01T05:28:15.410Z,103548.19
2022-12-01T05:29:17.276Z,103549.06
2022-12-01T05:30:19.003Z,103546.72
2022-12-01T05:31:20.739Z,103541.59
2022-12-01T05:32:22.474Z,103553.63
2022-12-01T05:33:26.048Z,103557.25
2022-12-01T05:34:27.721Z,103548.38
2022-12-01T05:35:29.535Z,103554.59
2022-12-01T05:36:32.066Z,103548.38
2022-12-01T05:37:34.738Z,103545.06
2022-12-01T05:38:36.535Z,103558.16
2022-12-01T05:39:40.283Z,103539.00
2022-12-01T05:40:41.952Z,103559.09
2022-12-01T05:41:43.697Z,103567.03
2022-12-01T05:42:45.445Z,103563.41
2022-12-01T05:43:47.260Z,103561.69
2022-12-01T05:44:49.013Z,103562.56
2022-12-01T05:45:50.770Z,103558.22
2022-12-01T05:46:52.865Z,103566.19
2022-12-01T05:47:58.114Z,103566.19
2022-12-01T05:48:59.876Z,103558.03
2022-12-01T05:50:05.566Z,103564.28
2022-12-01T05:51:12.448Z,103558.94
2022-12-01T05:52:14.176Z,103569.47
2022-12-01T05:53:16.040Z,103558.94
2022-12-01T05:54:17.705Z,103569.66
2022-12-01T05:55:19.452Z,103570.59
2022-12-01T05:56:21.867Z,103574.13
2022-12-01T05:57:23.584Z,103573.28
2022-12-01T05:58:25.321Z,103575.06
2022-12-01T05:59:27.004Z,103562.63
2022-12-01T06:00:29.389Z,103566.19
2022-12-01T06:01:31.156Z,103561.69
2022-12-01T06:02:32.839Z,103556.72
2022-12-01T06:03:34.602Z,103554.03
2022-12-01T06:04:36.405Z,103566.19
2022-12-01T06:05:38.133Z,103559.94
2022-12-01T06:06:39.813Z,103566.88
2022-12-01T06:07:41.529Z,103563.34
2022-12-01T06:08:43.221Z,103570.31
2022-12-01T06:09:46.597Z,103558.03
2022-12-01T06:10:48.416Z,103552.69
2022-12-01T06:11:52.643Z,103567.41
2022-12-01T06:12:54.532Z,103572.59
2022-12-01T06:13:56.309Z,103565.31
2022-12-01T06:14:57.989Z,103564.28
2022-12-01T06:16:02.658Z,103567.66
2022-12-01T06:17:04.410Z,103578.16
2022-12-01T06:18:06.162Z,103570.00
2022-12-01T06:19:07.832Z,103566.19
2022-12-01T06:20:10.902Z,103549.59
2022-12-01T06:21:12.702Z,103572.94
2022-12-01T06:22:14.441Z,103567.41
2022-12-01T06:23:16.213Z,103569.84
2022-12-01T06:24:17.926Z,103568.84
2022-12-01T06:25:19.716Z,103565.88
2022-12-01T06:26:21.428Z,103563.13
2022-12-01T06:27:23.266Z,103576.25
2022-12-01T06:28:25.198Z,103583.19
2022-12-01T06:29:27.001Z,103572.28
2022-12-01T06:30:28.700Z,103573.84
2022-12-01T06:31:30.409Z,103571.81
2022-12-01T06:32:32.094Z,103574.31
2022-12-01T06:33:34.193Z,103574.44
2022-12-01T06:34:36.054Z,103582.81
2022-12-01T06:35:38.008Z,103578.13
2022-12-01T06:36:39.694Z,103586.00
2022-12-01T06:37:41.373Z,103580.38
2022-12-01T06:38:43.165Z,103581.03
2022-12-01T06:39:44.845Z,103577.31
2022-12-01T06:40:46.515Z,103577.13
2022-12-01T06:41:48.557Z,103585.00
2022-12-01T06:42:50.233Z,103579.44
2022-12-01T06:43:51.975Z,103569.84
2022-12-01T06:44:53.725Z,103579.19
2022-12-01T06:46:01.247Z,103575.44
2022-12-01T06:47:04.012Z,103569.03
2022-12-01T06:48:05.849Z,103574.03
2022-12-01T06:49:12.228Z,103574.88
2022-12-01T06:50:14.172Z,103579.16
2022-12-01T06:51:15.897Z,103577.34
2022-12-01T06:52:17.573Z,103574.56
2022-12-01T06:53:19.274Z,103585.00
2022-12-01T06:54:21.500Z,103576.28
2022-12-01T06:55:23.283Z,103585.78
2022-12-01T06:56:25.862Z,103583.97
2022-12-01T06:57:27.923Z,103584.75
2022-12-01T06:58:30.789Z,103578.78
2022-12-01T06:59:33.034Z,103586.47
2022-12-01T07:00:35.054Z,103571.69
2022-12-01T07:01:36.955Z,103588.88
2022-12-01T07:02:39.244Z,103596.84
2022-12-01T07:03:41.060Z,103593.19
2022-12-01T07:04:43.006Z,103592.25
2022-12-01T07:05:44.699Z,103562.28
2022-12-01T07:06:46.407Z,103593.97
2022-12-01T07:07:48.300Z,103601.00
2022-12-01T07:08:50.007Z,103593.91
2022-12-01T07:09:52.027Z,103586.97
2022-12-01T07:11:11.304Z,103598.88
2022-12-01T07:12:13.017Z,103575.16
2022-12-01T07:13:14.677Z,103594.38
2022-12-01T07:14:23.673Z,103585.06
2022-12-01T07:15:25.509Z,103595.13
2022-12-01T07:16:27.297Z,103597.81
2022-12-01T07:17:29.794Z,103585.06
2022-12-01T07:18:33.048Z,103595.13
2022-12-01T07:19:34.827Z,103584.09
2022-12-01T07:20:36.515Z,103582.25
2022-12-01T07:21:38.183Z,103595.06
2022-12-01T07:22:40.177Z,103604.84
2022-12-01T07:23:42.174Z,103595.13
2022-12-01T07:24:43.844Z,103597.81
2022-12-01T07:25:45.662Z,103608.19
2022-12-01T07:26:48.242Z,103595.13
2022-12-01T07:27:49.961Z,103607.34
2022-12-01T07:28:52.969Z,103605.63
2022-12-01T07:29:54.650Z,103602.81
2022-12-01T07:31:07.203Z,103602.81
2022-12-01T07:32:08.961Z,103609.75
2022-12-01T07:33:10.866Z,103602.66
2022-12-01T07:34:13.522Z,103600.94
2022-12-01T07:35:15.384Z,103606.19
2022-12-01T07:36:17.094Z,103592.38
2022-12-01T07:37:18.784Z,103598.41
2022-12-01T07:38:22.277Z,103606.19
2022-12-01T07:39:24.175Z,103608.81
2022-12-01T07:40:25.977Z,103598.69
2022-12-01T07:41:27.721Z,103606.13
2022-12-01T07:42:29.785Z,103608.88
2022-12-01T07:43:32.885Z,103615.13
2022-12-01T07:44:34.692Z,103613.28
2022-12-01T07:45:36.446Z,103602.03
2022-12-01T07:46:38.432Z,103610.59
2022-12-01T07:47:40.345Z,103610.59
2022-12-01T07:48:42.333Z,103616.88
2022-12-01T07:49:44.072Z,103615.97
2022-12-01T07:50:45.792Z,103622.13
2022-12-01T07:51:47.497Z,103622.13
2022-12-01T07:52:50.897Z,103615.03
2022-12-01T07:53:54.140Z,103619.44
2022-12-01T07:54:55.878Z,103618.47
2022-12-01T07:55:58.674Z,103600.13
2022-12-01T07:57:00.494Z,103615.03
2022-12-01T07:58:02.293Z,103617.63
2022-12-01T07:59:04.070Z,103618.47
2022-12-01T08:00:07.747Z,103630.13
2022-12-01T08:01:19.439Z,103618.41
2022-12-01T08:02:21.374Z,103623.66
2022-12-01T08:03:23.374Z,103608.88
2022-12-01T08:04:25.261Z,103607.16
2022-12-01T08:05:26.955Z,103621.09
2022-12-01T08:06:28.727Z,103620.50
2022-12-01T08:07:30.601Z,103621.16
2022-12-01T08:08:34.793Z,103624.81
2022-12-01T08:09:36.553Z,103625.59
2022-12-01T08:10:38.251Z,103625.59
2022-12-01T08:11:40.291Z,103618.94
2022-12-01T08:12:42.007Z,103629.22
2022-12-01T08:13:44.153Z,103625.69
2022-12-01T08:14:45.934Z,103628.72
2022-12-01T08:15:47.677Z,103632.81
2022-12-01T08:16:49.592Z,103633.75
2022-12-01T08:17:51.517Z,103631.06
2022-12-01T08:18:53.635Z,103631.28
2022-12-01T08:19:55.297Z,103630.50
2022-12-01T08:20:58.379Z,103643.56
2022-12-01T08:22:00.092Z,103622.44
2022-12-01T08:23:02.718Z,103634.72
2022-12-01T08:24:05.197Z,103640.00
2022-12-01T08:25:07.202Z,103632.22
2022-12-01T08:26:12.881Z,103641.81
2022-12-01T08:27:14.586Z,103634.91
2022-12-01T08:28:16.265Z,103644.41
2022-12-01T08:29:20.372Z,103643.56
2022-12-01T08:30:23.112Z,103640.00
2022-12-01T08:31:30.200Z,103643.63
2022-12-01T08:32:31.994Z,103625.13
2022-12-01T08:33:33.793Z,103634.91
2022-12-01T08:34:38.400Z,103640.94
2022-12-01T08:35:40.169Z,103640.28
2022-12-01T08:36:41.973Z,103647.22
2022-12-01T08:37:43.729Z,103644.53
2022-12-01T08:38:47.356Z,103647.28
2022-12-01T08:39:49.344Z,103648.16
2022-12-01T08:40:51.313Z,103643.75
2022-12-01T08:41:53.035Z,103648.16
2022-12-01T08:42:54.756Z,103648.16
2022-12-01T08:43:58.319Z,103641.06
2022-12-01T08:45:00.788Z,103644.53
2022-12-01T08:46:03.054Z,103646.44
2022-12-01T08:47:04.801Z,103649.00
2022-12-01T08:48:06.577Z,103649.91
2022-12-01T08:49:08.302Z,103635.25
2022-12-01T08:50:11.210Z,103638.84
2022-12-01T08:51:16.208Z,103654.50
2022-12-01T08:52:18.098Z,103658.16
2022-12-01T08:53:19.920Z,103658.03
2022-12-01T08:54:21.950Z,103652.66
2022-12-01T08:55:23.646Z,103652.66
2022-12-01T08:56:28.472Z,103654.50
2022-12-01T08:57:30.382Z,103640.44
2022-12-01T08:58:32.321Z,103645.81
2022-12-01T08:59:33.996Z,103650.84
2022-12-01T09:00:35.653Z,103649.19
2022-12-01T09:01:52.149Z,103658.16
2022-12-01T09:02:54.167Z,103643.81
2022-12-01T09:04:08.798Z,103651.69
2022-12-01T09:05:10.844Z,103648.94
2022-12-01T09:06:22.816Z,103650.84
2022-12-01T09:07:26.570Z,103645.56
2022-12-01T09:08:31.818Z,103652.66
2022-12-01T09:09:35.981Z,103652.78
2022-12-01T09:10:37.686Z,103641.13
2022-12-01T09:11:41.092Z,103627.00
2022-12-01T09:12:42.724Z,103639.78
2022-12-01T09:13:49.856Z,103642.19
2022-12-01T09:14:54.869Z,103645.66
2022-12-01T09:16:02.537Z,103649.31
2022-12-01T09:17:04.391Z,103651.88
2022-12-01T09:18:07.126Z,103653.72
2022-12-01T09:19:09.778Z,103638.31
2022-12-01T09:20:12.016Z,103637.19
2022-12-01T09:21:26.005Z,103651.19
2022-12-01T09:22:27.692Z,103654.56
2022-12-01T09:23:29.473Z,103651.03
2022-12-01T09:24:31.165Z,103654.69
2022-12-01T09:25:33.896Z,103660.06
2022-12-01T09:26:35.598Z,103663.69
2022-12-01T09:27:37.385Z,103661.00
2022-12-01T09:28:39.189Z,103652.34
2022-12-01T09:29:40.924Z,103661.94
2022-12-01T09:30:42.745Z,103670.00
2022-12-01T09:31:44.556Z,103662.84
2022-12-01T09:32:46.324Z,103663.69
2022-12-01T09:33:48.137Z,103667.31
2022-12-01T09:34:49.881Z,103661.94
2022-12-01T09:35:51.819Z,103661.09
2022-12-01T09:37:00.261Z,103672.03
2022-12-01T09:38:02.017Z,103664.63
2022-12-01T09:39:08.304Z,103660.22
2022-12-01T09:40:15.024Z,103665.59
2022-12-01T09:41:31.848Z,103662.84
2022-12-01T09:42:35.498Z,103665.44
2022-12-01T09:43:47.637Z,103650.63
2022-12-01T09:44:53.141Z,103666.38
2022-12-01T09:46:02.309Z,103658.31
2022-12-01T09:47:31.055Z,103666.03
2022-12-01T09:48:43.483Z,103651.88
2022-12-01T09:49:54.499Z,103666.97
2022-12-01T09:50:56.293Z,103656.31
2022-12-01T09:52:00.271Z,103648.13
2022-12-01T09:53:09.038Z,103669.06
2022-12-01T09:54:14.129Z,103663.69
2022-12-01T09:55:18.615Z,103662.84
2022-12-01T09:56:25.785Z,103660.22
2022-12-01T09:57:30.913Z,103647.94
2022-12-01T09:58:33.678Z,103662.84
2022-12-01T09:59:40.373Z,103654.00
2022-12-01T10:00:44.111Z,103653.88
2022-12-01T10:01:49.860Z,103654.84
2022-12-01T10:03:14.038Z,103652.94
2022-12-01T10:04:28.053Z,103651.88
2022-12-01T10:06:02.999Z,103648.44
2022-12-01T10:07:29.674Z,103652.28
2022-12-01T10:08:37.158Z,103632.38
2022-12-01T10:09:47.733Z,103653.44
2022-12-01T10:10:52.497Z,103650.09
2022-12-01T10:12:20.513Z,103653.81
2022-12-01T10:13:24.722Z,103647.28
2022-12-01T10:14:29.748Z,103651.03
2022-12-01T10:15:59.426Z,103651.81
2022-12-01T10:17:14.385Z,103652.59
2022-12-01T10:18:24.822Z,103650.94
2022-12-01T10:19:46.485Z,103649.00
2022-12-01T10:20:48.274Z,103652.78
2022-12-01T10:22:15.178Z,103650.25
2022-12-01T10:23:40.114Z,103652.78
2022-12-01T10:25:13.325Z,103647.09
2022-12-01T10:26:30.775Z,103654.38
2022-12-01T10:27:57.070Z,103654.50
2022-12-01T10:29:12.878Z,103657.97
2022-12-01T10:30:18.608Z,103650.09
2022-12-01T10:31:42.848Z,103628.72
2022-12-01T10:33:01.575Z,103655.34
2022-12-01T10:34:16.012Z,103652.00
2022-12-01T10:35:23.477Z,103649.31
2022-12-01T10:36:26.775Z,103650.44
2022-12-01T10:37:30.752Z,103655.03
2022-12-01T10:38:36.697Z,103649.66
2022-12-01T10:39:42.051Z,103649.66
2022-12-01T10:40:44.953Z,103655.03
2022-12-01T10:41:48.945Z,103645.44
2022-12-01T10:42:51.614Z,103638.50
2022-12-01T10:43:59.707Z,103651.56
2022-12-01T10:45:05.763Z,103652.47
2022-12-01T10:46:28.806Z,103648.63
2022-12-01T10:47:32.097Z,103652.16
2022-12-01T10:48:51.425Z,103655.16
2022-12-01T10:49:53.390Z,103656.56
2022-12-01T10:50:57.345Z,103659.56
2022-12-01T10:51:59.009Z,103661.38
2022-12-01T10:53:00.696Z,103657.13
2022-12-01T10:54:11.711Z,103661.47
2022-12-01T10:55:26.400Z,103666.66
2022-12-01T10:56:28.469Z,103657.66
2022-12-01T10:57:31.414Z,103667.69
2022-12-01T10:58:42.098Z,103668.59
2022-12-01T10:59:53.296Z,103666.75
2022-12-01T11:01:04.888Z,103668.41
2022-12-01T11:02:16.066Z,103669.25
2022-12-01T11:03:22.348Z,103662.25
2022-12-01T11:04:45.042Z,103671.16
2022-12-01T11:05:52.954Z,103670.31
2022-12-01T11:06:55.099Z,103655.50
2022-12-01T11:07:57.043Z,103675.69
2022-12-01T11:09:22.900Z,103668.66
2022-12-01T11:10:31.848Z,103673.66
2022-12-01T11:11:37.177Z,103666.66
2022-12-01T11:12:39.961Z,103660.91
2022-12-01T11:13:42.374Z,103668.66
2022-12-01T11:14:53.674Z,103665.13
2022-12-01T11:15:58.620Z,103672.22
2022-12-01T11:17:29.642Z,103668.47
2022-12-01T11:18:36.972Z,103670.97
2022-12-01T11:19:38.871Z,103669.34
2022-12-01T11:20:41.067Z,103667.69
2022-12-01T11:21:54.320Z,103663.28
2022-12-01T11:23:17.644Z,103628.50
2022-12-01T11:25:03.747Z,103660.22
2022-12-01T11:26:20.863Z,103666.28
2022-12-01T11:27:32.999Z,103674.44
2022-12-01T11:28:36.594Z,103667.44
2022-12-01T11:29:40.193Z,103665.00
2022-12-01T11:30:42.009Z,103673.06
2022-12-01T11:31:46.320Z,103672.31
2022-12-01T11:32:53.994Z,103657.50
2022-12-01T11:33:56.457Z,103671.47
2022-12-01T11:35:02.206Z,103671.53
2022-12-01T11:36:04.187Z,103653.19
2022-12-01T11:37:16.999Z,103669.63
2022-12-01T11:38:31.309Z,103663.41
2022-12-01T11:39:40.690Z,103671.28
2022-12-01T11:40:50.355Z,103668.66
2022-12-01T11:42:41.450Z,103675.38
2022-12-01T11:43:50.552Z,103667.16
2022-12-01T11:45:05.976Z,103663.69
2022-12-01T11:46:09.894Z,103669.25
2022-12-01T11:47:24.956Z,103665.97
2022-12-01T11:48:30.030Z,103666.75
2022-12-01T11:49:31.898Z,103663.28
2022-12-01T11:50:36.656Z,103671.47
2022-12-01T11:51:39.131Z,103668.66
2022-12-01T11:52:47.461Z,103657.13
2022-12-01T11:53:49.276Z,103659.06
2022-12-01T11:54:58.257Z,103658.88
2022-12-01T11:56:29.052Z,103668.47
2022-12-01T11:57:34.467Z,103646.38
2022-12-01T11:58:36.798Z,103642.16
2022-12-01T11:59:38.615Z,103660.59
2022-12-01T12:00:48.404Z,103657.25
2022-12-01T12:02:02.016Z,103659.75
2022-12-01T12:03:35.783Z,103653.88
2022-12-01T12:04:58.820Z,103655.81
2022-12-01T12:06:17.848Z,103651.19
2022-12-01T12:07:25.005Z,103653.03
2022-12-01T12:08:35.849Z,103652.25
2022-12-01T12:10:12.953Z,103655.91
2022-12-01T12:11:37.013Z,103648.44
2022-12-01T12:13:00.491Z,103651.88
2022-12-01T12:14:44.205Z,103650.16
2022-12-01T12:16:04.377Z,103658.03
2022-12-01T12:17:19.706Z,103658.31
2022-12-01T12:18:36.817Z,103665.44
2022-12-01T12:20:18.180Z,103656.56
2022-12-01T12:21:46.937Z,103650.16
2022-12-01T12:23:09.033Z,103651.13
2022-12-01T12:24:38.050Z,103650.25
2022-12-01T12:26:29.771Z,103650.84
2022-12-01T12:27:52.646Z,103652.78
2022-12-01T12:29:08.180Z,103651.13
2022-12-01T12:30:23.041Z,103658.41
2022-12-01T12:31:35.145Z,103650.63
2022-12-01T12:32:45.730Z,103649.75
2022-12-01T12:34:12.746Z,103655.03
2022-12-01T12:35:39.441Z,103653.13
2022-12-01T12:36:51.813Z,103645.63
2022-12-01T12:38:10.085Z,103652.53
2022-12-01T12:39:35.268Z,103648.81
2022-12-01T12:40:52.468Z,103653.22
2022-12-01T12:41:58.066Z,103650.72
2022-12-01T12:42:59.749Z,103645.44